sensor_id;sensor_type;location;lat;lon;timestamp;temperature;humidity
6879;DHT22;3478;51.462;7.338;2022-11-23T00:02:08;7.70;99.90
6879;DHT22;3478;51.462;7.338;2022-11-23T00:07:10;7.80;99.90
6879;DHT22;3478;51.462;7.338;2022-11-23T00:12:12;7.80;99.90
6879;DHT22;3478;51.462;7.338;2022-11-23T00:17:16;7.80;99.90
6879;DHT22;3478;51.462;7.338;2022-11-23T00:22:18;7.80;99.90
6879;DHT22;3478;51.462;7.338;2022-11-23T00:27:20;7.90;99.90
6879;DHT22;3478;51.462;7.338;2022-11-23T00:32:23;7.90;99.90
6879;DHT22;3478;51.462;7.338;2022-11-23T00:37:25;7.90;99.90
6879;DHT22;3478;51.462;7.338;2022-11-23T00:42:27;7.90;99.90
6879;DHT22;3478;51.462;7.338;2022-11-23T00:47:30;8.00;99.90
6879;DHT22;3478;51.462;7.338;2022-11-23T00:52:32;8.00;99.90
6879;DHT22;3478;51.462;7.338;2022-11-23T00:57:34;8.00;99.90
6879;DHT22;3478;51.462;7.338;2022-11-23T01:02:38;8.10;99.90
6879;DHT22;3478;51.462;7.338;2022-11-23T01:07:40;8.10;99.90
6879;DHT22;3478;51.462;7.338;2022-11-23T01:12:42;8.10;99.90
6879;DHT22;3478;51.462;7.338;2022-11-23T01:17:45;8.20;99.90
6879;DHT22;3478;51.462;7.338;2022-11-23T01:22:47;8.20;99.90
6879;DHT22;3478;51.462;7.338;2022-11-23T01:27:51;8.20;99.90
6879;DHT22;3478;51.462;7.338;2022-11-23T01:32:55;8.20;99.90
6879;DHT22;3478;51.462;7.338;2022-11-23T01:37:57;8.20;99.90
6879;DHT22;3478;51.462;7.338;2022-11-23T01:42:59;8.20;99.90
6879;DHT22;3478;51.462;7.338;2022-11-23T01:48:07;8.20;99.90
6879;DHT22;3478;51.462;7.338;2022-11-23T01:53:10;8.20;99.90
6879;DHT22;3478;51.462;7.338;2022-11-23T01:58:14;8.10;99.90
6879;DHT22;3478;51.462;7.338;2022-11-23T02:03:19;8.10;99.90
6879;DHT22;3478;51.462;7.338;2022-11-23T02:08:21;8.10;99.90
6879;DHT22;3478;51.462;7.338;2022-11-23T02:13:24;8.10;99.90
6879;DHT22;3478;51.462;7.338;2022-11-23T02:18:31;8.10;99.90
6879;DHT22;3478;51.462;7.338;2022-11-23T02:23:41;8.20;99.90
6879;DHT22;3478;51.462;7.338;2022-11-23T02:28:48;8.20;99.90
6879;DHT22;3478;51.462;7.338;2022-11-23T02:33:51;8.20;99.90
6879;DHT22;3478;51.462;7.338;2022-11-23T02:38:54;8.30;99.90
6879;DHT22;3478;51.462;7.338;2022-11-23T02:43:58;8.30;99.90
6879;DHT22;3478;51.462;7.338;2022-11-23T02:49:00;8.40;99.90
6879;DHT22;3478;51.462;7.338;2022-11-23T02:54:02;8.30;99.90
6879;DHT22;3478;51.462;7.338;2022-11-23T02:59:05;8.40;99.90
6879;DHT22;3478;51.462;7.338;2022-11-23T03:04:07;8.40;99.90
6879;DHT22;3478;51.462;7.338;2022-11-23T03:09:10;8.50;99.90
6879;DHT22;3478;51.462;7.338;2022-11-23T03:14:14;8.50;99.90
6879;DHT22;3478;51.462;7.338;2022-11-23T03:19:16;8.50;99.90
6879;DHT22;3478;51.462;7.338;2022-11-23T03:24:18;8.50;99.90
6879;DHT22;3478;51.462;7.338;2022-11-23T03:29:21;8.50;99.90
6879;DHT22;3478;51.462;7.338;2022-11-23T03:34:25;8.50;99.90
6879;DHT22;3478;51.462;7.338;2022-11-23T03:39:27;8.40;99.90
6879;DHT22;3478;51.462;7.338;2022-11-23T03:44:32;8.30;99.90
6879;DHT22;3478;51.462;7.338;2022-11-23T03:49:34;8.30;99.90
6879;DHT22;3478;51.462;7.338;2022-11-23T03:54:36;8.20;99.90
6879;DHT22;3478;51.462;7.338;2022-11-23T03:59:40;8.10;99.90
6879;DHT22;3478;51.462;7.338;2022-11-23T04:04:44;8.00;99.90
6879;DHT22;3478;51.462;7.338;2022-11-23T04:09:46;8.00;99.90
6879;DHT22;3478;51.462;7.338;2022-11-23T04:14:49;8.00;99.90
6879;DHT22;3478;51.462;7.338;2022-11-23T04:19:51;8.00;99.90
6879;DHT22;3478;51.462;7.338;2022-11-23T04:24:53;8.00;99.90
6879;DHT22;3478;51.462;7.338;2022-11-23T04:29:57;7.90;99.90
6879;DHT22;3478;51.462;7.338;2022-11-23T04:34:59;7.80;99.90
6879;DHT22;3478;51.462;7.338;2022-11-23T04:40:01;7.90;99.90
6879;DHT22;3478;51.462;7.338;2022-11-23T04:45:06;7.90;99.90
6879;DHT22;3478;51.462;7.338;2022-11-23T04:50:08;7.90;99.90
6879;DHT22;3478;51.462;7.338;2022-11-23T04:55:10;7.90;99.90
6879;DHT22;3478;51.462;7.338;2022-11-23T05:00:15;7.90;99.90
6879;DHT22;3478;51.462;7.338;2022-11-23T05:05:17;7.90;99.90
6879;DHT22;3478;51.462;7.338;2022-11-23T05:10:19;7.90;99.90
6879;DHT22;3478;51.462;7.338;2022-11-23T05:15:22;7.80;99.90
6879;DHT22;3478;51.462;7.338;2022-11-23T05:20:24;7.80;99.90
6879;DHT22;3478;51.462;7.338;2022-11-23T05:25:26;7.90;99.90
6879;DHT22;3478;51.462;7.338;2022-11-23T05:30:30;7.90;99.90
6879;DHT22;3478;51.462;7.338;2022-11-23T05:35:32;7.90;99.90
6879;DHT22;3478;51.462;7.338;2022-11-23T05:40:35;7.90;99.90
6879;DHT22;3478;51.462;7.338;2022-11-23T05:45:38;8.00;99.90
6879;DHT22;3478;51.462;7.338;2022-11-23T05:50:40;7.90;99.90
6879;DHT22;3478;51.462;7.338;2022-11-23T05:55:42;8.00;99.90
6879;DHT22;3478;51.462;7.338;2022-11-23T06:00:46;8.00;99.90
6879;DHT22;3478;51.462;7.338;2022-11-23T06:05:48;8.00;99.90
6879;DHT22;3478;51.462;7.338;2022-11-23T06:10:50;8.00;99.90
6879;DHT22;3478;51.462;7.338;2022-11-23T06:16:03;8.00;99.90
6879;DHT22;3478;51.462;7.338;2022-11-23T06:21:05;8.00;99.90
6879;DHT22;3478;51.462;7.338;2022-11-23T06:26:07;8.00;99.90
6879;DHT22;3478;51.462;7.338;2022-11-23T06:31:10;8.00;99.90
6879;DHT22;3478;51.462;7.338;2022-11-23T06:36:12;8.00;99.90
6879;DHT22;3478;51.462;7.338;2022-11-23T06:41:15;8.00;99.90
6879;DHT22;3478;51.462;7.338;2022-11-23T06:46:19;7.90;99.90
6879;DHT22;3478;51.462;7.338;2022-11-23T06:51:21;7.90;99.90
6879;DHT22;3478;51.462;7.338;2022-11-23T06:56:33;7.90;99.90
6879;DHT22;3478;51.462;7.338;2022-11-23T07:01:37;7.90;99.90
6879;DHT22;3478;51.462;7.338;2022-11-23T07:06:39;8.00;99.90
6879;DHT22;3478;51.462;7.338;2022-11-23T07:11:42;8.00;99.90
6879;DHT22;3478;51.462;7.338;2022-11-23T07:16:45;8.10;99.90
6879;DHT22;3478;51.462;7.338;2022-11-23T07:21:47;8.00;99.90
6879;DHT22;3478;51.462;7.338;2022-11-23T07:26:49;8.10;99.90
6879;DHT22;3478;51.462;7.338;2022-11-23T07:31:53;8.00;99.90
6879;DHT22;3478;51.462;7.338;2022-11-23T07:36:55;8.10;99.90
6879;DHT22;3478;51.462;7.338;2022-11-23T07:41:57;8.10;99.90
6879;DHT22;3478;51.462;7.338;2022-11-23T07:47:01;8.00;99.90
6879;DHT22;3478;51.462;7.338;2022-11-23T07:52:03;8.10;99.90
6879;DHT22;3478;51.462;7.338;2022-11-23T07:57:08;8.10;99.90
6879;DHT22;3478;51.462;7.338;2022-11-23T08:02:15;8.20;99.90
6879;DHT22;3478;51.462;7.338;2022-11-23T08:07:19;8.20;99.90
6879;DHT22;3478;51.462;7.338;2022-11-23T08:12:21;8.30;99.90
6879;DHT22;3478;51.462;7.338;2022-11-23T08:17:25;8.30;99.90
6879;DHT22;3478;51.462;7.338;2022-11-23T08:22:27;8.40;99.90
6879;DHT22;3478;51.462;7.338;2022-11-23T08:27:29;8.40;99.90
6879;DHT22;3478;51.462;7.338;2022-11-23T08:32:33;8.50;99.90
6879;DHT22;3478;51.462;7.338;2022-11-23T08:37:36;8.50;99.90
6879;DHT22;3478;51.462;7.338;2022-11-23T08:42:38;8.60;99.90
6879;DHT22;3478;51.462;7.338;2022-11-23T08:47:42;8.70;99.90
6879;DHT22;3478;51.462;7.338;2022-11-23T08:52:45;9.00;99.90
6879;DHT22;3478;51.462;7.338;2022-11-23T08:57:53;9.20;99.90
6879;DHT22;3478;51.462;7.338;2022-11-23T09:03:02;9.20;99.90
6879;DHT22;3478;51.462;7.338;2022-11-23T09:08:05;9.10;99.90
6879;DHT22;3478;51.462;7.338;2022-11-23T09:13:11;9.30;99.90
6879;DHT22;3478;51.462;7.338;2022-11-23T09:18:16;9.50;99.90
6879;DHT22;3478;51.462;7.338;2022-11-23T09:23:21;9.70;99.90
6879;DHT22;3478;51.462;7.338;2022-11-23T09:28:29;9.80;99.90
6879;DHT22;3478;51.462;7.338;2022-11-23T09:33:45;9.90;99.90
6879;DHT22;3478;51.462;7.338;2022-11-23T09:38:50;9.90;99.90
6879;DHT22;3478;51.462;7.338;2022-11-23T09:43:58;10.10;99.90
6879;DHT22;3478;51.462;7.338;2022-11-23T09:49:13;10.00;99.90
6879;DHT22;3478;51.462;7.338;2022-11-23T09:54:24;10.00;99.90
6879;DHT22;3478;51.462;7.338;2022-11-23T09:59:35;9.80;99.90
6879;DHT22;3478;51.462;7.338;2022-11-23T10:05:08;9.80;99.90
6879;DHT22;3478;51.462;7.338;2022-11-23T10:10:39;9.60;99.90
6879;DHT22;3478;51.462;7.338;2022-11-23T10:15:51;9.60;99.90
6879;DHT22;3478;51.462;7.338;2022-11-23T10:21:09;9.50;99.90
6879;DHT22;3478;51.462;7.338;2022-11-23T10:26:17;9.60;99.90
6879;DHT22;3478;51.462;7.338;2022-11-23T10:31:20;9.70;99.90
6879;DHT22;3478;51.462;7.338;2022-11-23T10:36:42;9.80;99.90
6879;DHT22;3478;51.462;7.338;2022-11-23T10:41:44;9.70;99.90
6879;DHT22;3478;51.462;7.338;2022-11-23T10:46:47;9.70;99.90
6879;DHT22;3478;51.462;7.338;2022-11-23T10:51:54;9.70;99.90
6879;DHT22;3478;51.462;7.338;2022-11-23T10:56:59;9.70;99.90
6879;DHT22;3478;51.462;7.338;2022-11-23T11:02:13;9.60;99.90
6879;DHT22;3478;51.462;7.338;2022-11-23T11:07:25;9.70;99.90
6879;DHT22;3478;51.462;7.338;2022-11-23T11:12:50;9.80;99.90
6879;DHT22;3478;51.462;7.338;2022-11-23T11:17:54;9.80;99.90
6879;DHT22;3478;51.462;7.338;2022-11-23T11:22:59;9.80;99.90
6879;DHT22;3478;51.462;7.338;2022-11-23T11:28:16;9.80;99.90
6879;DHT22;3478;51.462;7.338;2022-11-23T11:33:23;9.80;99.90
6879;DHT22;3478;51.462;7.338;2022-11-23T11:38:32;9.90;99.90
6879;DHT22;3478;51.462;7.338;2022-11-23T11:43:41;10.00;99.90
6879;DHT22;3478;51.462;7.338;2022-11-23T11:48:50;10.10;99.90
6879;DHT22;3478;51.462;7.338;2022-11-23T11:54:00;10.10;99.90
6879;DHT22;3478;51.462;7.338;2022-11-23T11:59:11;10.00;99.90
6879;DHT22;3478;51.462;7.338;2022-11-23T12:04:19;10.10;99.90
6879;DHT22;3478;51.462;7.338;2022-11-23T12:09:26;10.10;99.90
6879;DHT22;3478;51.462;7.338;2022-11-23T12:14:30;10.20;99.90
6879;DHT22;3478;51.462;7.338;2022-11-23T12:19:35;10.30;99.90
6879;DHT22;3478;51.462;7.338;2022-11-23T12:25:10;10.40;99.90
6879;DHT22;3478;51.462;7.338;2022-11-23T12:30:23;10.50;99.90
6879;DHT22;3478;51.462;7.338;2022-11-23T12:35:41;10.70;99.90
6879;DHT22;3478;51.462;7.338;2022-11-23T12:41:10;11.00;99.90
6879;DHT22;3478;51.462;7.338;2022-11-23T12:46:18;11.20;99.90
6879;DHT22;3478;51.462;7.338;2022-11-23T12:51:35;11.40;99.90
6879;DHT22;3478;51.462;7.338;2022-11-23T12:57:09;11.10;99.90
6879;DHT22;3478;51.462;7.338;2022-11-23T13:02:42;11.10;99.90
6879;DHT22;3478;51.462;7.338;2022-11-23T13:08:07;11.10;99.90
6879;DHT22;3478;51.462;7.338;2022-11-23T13:18:57;11.50;99.90
6879;DHT22;3478;51.462;7.338;2022-11-23T13:24:03;11.70;99.90
6879;DHT22;3478;51.462;7.338;2022-11-23T13:29:46;12.10;99.90
6879;DHT22;3478;51.462;7.338;2022-11-23T13:34:57;13.60;99.90
6879;DHT22;3478;51.462;7.338;2022-11-23T13:40:01;15.20;99.90
6879;DHT22;3478;51.462;7.338;2022-11-23T13:45:30;15.60;98.20
6879;DHT22;3478;51.462;7.338;2022-11-23T13:50:39;15.30;98.20
6879;DHT22;3478;51.462;7.338;2022-11-23T13:55:57;15.30;97.50
6879;DHT22;3478;51.462;7.338;2022-11-23T14:01:01;14.90;97.90
6879;DHT22;3478;51.462;7.338;2022-11-23T14:06:05;13.60;98.80
6879;DHT22;3478;51.462;7.338;2022-11-23T14:11:11;12.70;99.90
6879;DHT22;3478;51.462;7.338;2022-11-23T14:16:27;12.00;99.90
6879;DHT22;3478;51.462;7.338;2022-11-23T14:21:37;11.50;99.90
6879;DHT22;3478;51.462;7.338;2022-11-23T14:26:52;11.00;99.90
6879;DHT22;3478;51.462;7.338;2022-11-23T14:32:14;10.70;99.90
6879;DHT22;3478;51.462;7.338;2022-11-23T14:37:25;10.40;99.90
6879;DHT22;3478;51.462;7.338;2022-11-23T14:42:30;10.30;99.90
6879;DHT22;3478;51.462;7.338;2022-11-23T14:47:33;10.20;99.90
6879;DHT22;3478;51.462;7.338;2022-11-23T14:52:37;10.00;99.90
6879;DHT22;3478;51.462;7.338;2022-11-23T14:57:42;9.80;99.90
6879;DHT22;3478;51.462;7.338;2022-11-23T15:02:45;9.70;99.90
6879;DHT22;3478;51.462;7.338;2022-11-23T15:07:52;9.70;99.90
6879;DHT22;3478;51.462;7.338;2022-11-23T15:12:55;9.60;99.90
6879;DHT22;3478;51.462;7.338;2022-11-23T15:17:58;9.60;99.90
6879;DHT22;3478;51.462;7.338;2022-11-23T15:23:02;9.50;99.90
6879;DHT22;3478;51.462;7.338;2022-11-23T15:28:12;9.40;99.90
6879;DHT22;3478;51.462;7.338;2022-11-23T15:33:19;9.40;99.90
6879;DHT22;3478;51.462;7.338;2022-11-23T15:38:22;9.40;99.90
6879;DHT22;3478;51.462;7.338;2022-11-23T15:43:24;9.40;99.90
6879;DHT22;3478;51.462;7.338;2022-11-23T15:48:28;9.40;99.90
6879;DHT22;3478;51.462;7.338;2022-11-23T15:53:43;9.40;99.90
6879;DHT22;3478;51.462;7.338;2022-11-23T15:58:49;9.40;99.90
6879;DHT22;3478;51.462;7.338;2022-11-23T16:03:52;9.40;99.90
6879;DHT22;3478;51.462;7.338;2022-11-23T16:08:57;9.40;99.90
6879;DHT22;3478;51.462;7.338;2022-11-23T16:14:11;9.40;99.90
6879;DHT22;3478;51.462;7.338;2022-11-23T16:19:25;9.40;99.90
6879;DHT22;3478;51.462;7.338;2022-11-23T16:24:31;9.30;99.90
6879;DHT22;3478;51.462;7.338;2022-11-23T16:29:35;9.30;99.90
6879;DHT22;3478;51.462;7.338;2022-11-23T16:34:37;9.30;99.90
6879;DHT22;3478;51.462;7.338;2022-11-23T16:39:42;9.30;99.90
6879;DHT22;3478;51.462;7.338;2022-11-23T16:44:44;9.20;99.90
6879;DHT22;3478;51.462;7.338;2022-11-23T16:49:46;9.20;99.90
6879;DHT22;3478;51.462;7.338;2022-11-23T16:54:51;9.20;99.90
6879;DHT22;3478;51.462;7.338;2022-11-23T16:59:54;9.00;99.90
6879;DHT22;3478;51.462;7.338;2022-11-23T17:04:57;8.90;99.90
6879;DHT22;3478;51.462;7.338;2022-11-23T17:10:00;8.80;99.90
6879;DHT22;3478;51.462;7.338;2022-11-23T17:15:04;8.70;99.90
6879;DHT22;3478;51.462;7.338;2022-11-23T17:20:08;8.60;99.90
6879;DHT22;3478;51.462;7.338;2022-11-23T17:25:16;8.50;99.90
6879;DHT22;3478;51.462;7.338;2022-11-23T17:30:20;8.40;99.90
6879;DHT22;3478;51.462;7.338;2022-11-23T17:35:22;8.40;99.90
6879;DHT22;3478;51.462;7.338;2022-11-23T17:40:44;8.30;99.90
6879;DHT22;3478;51.462;7.338;2022-11-23T17:45:46;8.30;99.90
6879;DHT22;3478;51.462;7.338;2022-11-23T17:50:48;8.20;99.90
6879;DHT22;3478;51.462;7.338;2022-11-23T17:55:54;8.20;99.90
6879;DHT22;3478;51.462;7.338;2022-11-23T18:00:58;8.10;99.90
6879;DHT22;3478;51.462;7.338;2022-11-23T18:06:02;8.20;99.90
6879;DHT22;3478;51.462;7.338;2022-11-23T18:11:06;8.10;99.90
6879;DHT22;3478;51.462;7.338;2022-11-23T18:16:11;8.10;99.90
6879;DHT22;3478;51.462;7.338;2022-11-23T18:21:13;8.00;99.90
6879;DHT22;3478;51.462;7.338;2022-11-23T18:26:21;8.00;99.90
6879;DHT22;3478;51.462;7.338;2022-11-23T18:31:25;7.90;99.90
6879;DHT22;3478;51.462;7.338;2022-11-23T18:36:32;7.90;99.90
6879;DHT22;3478;51.462;7.338;2022-11-23T18:41:36;7.90;99.90
6879;DHT22;3478;51.462;7.338;2022-11-23T18:46:41;7.90;99.90
6879;DHT22;3478;51.462;7.338;2022-11-23T18:51:56;7.90;99.90
6879;DHT22;3478;51.462;7.338;2022-11-23T18:57:05;7.80;99.90
6879;DHT22;3478;51.462;7.338;2022-11-23T19:02:16;7.80;99.90
6879;DHT22;3478;51.462;7.338;2022-11-23T19:07:18;7.80;99.90
6879;DHT22;3478;51.462;7.338;2022-11-23T19:12:22;7.80;99.90
6879;DHT22;3478;51.462;7.338;2022-11-23T19:17:25;7.80;99.90
6879;DHT22;3478;51.462;7.338;2022-11-23T19:22:27;7.80;99.90
6879;DHT22;3478;51.462;7.338;2022-11-23T19:27:33;7.90;99.90
6879;DHT22;3478;51.462;7.338;2022-11-23T19:32:36;7.90;99.90
6879;DHT22;3478;51.462;7.338;2022-11-23T19:37:38;7.90;99.90
6879;DHT22;3478;51.462;7.338;2022-11-23T19:42:43;7.90;99.90
6879;DHT22;3478;51.462;7.338;2022-11-23T19:47:45;7.90;99.90
6879;DHT22;3478;51.462;7.338;2022-11-23T19:52:47;8.00;99.90
6879;DHT22;3478;51.462;7.338;2022-11-23T19:57:50;8.00;99.90
6879;DHT22;3478;51.462;7.338;2022-11-23T20:02:53;8.10;99.90
6879;DHT22;3478;51.462;7.338;2022-11-23T20:08:01;8.10;99.90
6879;DHT22;3478;51.462;7.338;2022-11-23T20:13:05;8.10;99.90
6879;DHT22;3478;51.462;7.338;2022-11-23T20:18:07;8.10;99.90
6879;DHT22;3478;51.462;7.338;2022-11-23T20:23:10;8.10;99.90
6879;DHT22;3478;51.462;7.338;2022-11-23T20:28:14;8.10;99.90
6879;DHT22;3478;51.462;7.338;2022-11-23T20:33:16;8.00;99.90
6879;DHT22;3478;51.462;7.338;2022-11-23T20:38:19;8.00;99.90
6879;DHT22;3478;51.462;7.338;2022-11-23T20:43:24;8.10;99.90
6879;DHT22;3478;51.462;7.338;2022-11-23T20:48:26;8.10;99.90
6879;DHT22;3478;51.462;7.338;2022-11-23T20:53:29;8.10;99.90
6879;DHT22;3478;51.462;7.338;2022-11-23T20:58:33;8.00;99.90
6879;DHT22;3478;51.462;7.338;2022-11-23T21:03:38;8.10;99.90
6879;DHT22;3478;51.462;7.338;2022-11-23T21:08:42;8.10;99.90
6879;DHT22;3478;51.462;7.338;2022-11-23T21:13:45;8.00;99.90
6879;DHT22;3478;51.462;7.338;2022-11-23T21:19:06;8.00;99.90
6879;DHT22;3478;51.462;7.338;2022-11-23T21:24:09;8.00;99.90
6879;DHT22;3478;51.462;7.338;2022-11-23T21:29:12;8.00;99.90
6879;DHT22;3478;51.462;7.338;2022-11-23T21:34:16;8.00;99.90
6879;DHT22;3478;51.462;7.338;2022-11-23T21:39:20;8.00;99.90
6879;DHT22;3478;51.462;7.338;2022-11-23T21:44:23;8.00;99.90
6879;DHT22;3478;51.462;7.338;2022-11-23T21:49:26;8.00;99.90
6879;DHT22;3478;51.462;7.338;2022-11-23T21:54:28;8.00;99.90
6879;DHT22;3478;51.462;7.338;2022-11-23T21:59:31;8.00;99.90
6879;DHT22;3478;51.462;7.338;2022-11-23T22:04:36;8.00;99.90
6879;DHT22;3478;51.462;7.338;2022-11-23T22:09:38;8.10;99.90
6879;DHT22;3478;51.462;7.338;2022-11-23T22:14:41;8.10;99.90
6879;DHT22;3478;51.462;7.338;2022-11-23T22:19:43;8.10;99.90
6879;DHT22;3478;51.462;7.338;2022-11-23T22:24:45;8.10;99.90
6879;DHT22;3478;51.462;7.338;2022-11-23T22:29:49;8.10;99.90
6879;DHT22;3478;51.462;7.338;2022-11-23T22:34:50;8.10;99.90
6879;DHT22;3478;51.462;7.338;2022-11-23T22:39:52;8.20;99.90
6879;DHT22;3478;51.462;7.338;2022-11-23T22:44:56;8.20;99.90
6879;DHT22;3478;51.462;7.338;2022-11-23T22:49:58;8.20;99.90
6879;DHT22;3478;51.462;7.338;2022-11-23T22:55:00;8.20;99.90
6879;DHT22;3478;51.462;7.338;2022-11-23T23:00:05;8.20;99.90
6879;DHT22;3478;51.462;7.338;2022-11-23T23:05:10;8.30;99.90
6879;DHT22;3478;51.462;7.338;2022-11-23T23:10:12;8.30;99.90
6879;DHT22;3478;51.462;7.338;2022-11-23T23:15:15;8.30;99.90
6879;DHT22;3478;51.462;7.338;2022-11-23T23:20:17;8.40;99.90
6879;DHT22;3478;51.462;7.338;2022-11-23T23:25:19;8.40;99.90
6879;DHT22;3478;51.462;7.338;2022-11-23T23:30:23;8.40;99.90
6879;DHT22;3478;51.462;7.338;2022-11-23T23:35:25;8.50;99.90
6879;DHT22;3478;51.462;7.338;2022-11-23T23:40:27;8.60;99.90
6879;DHT22;3478;51.462;7.338;2022-11-23T23:45:30;8.60;99.90
6879;DHT22;3478;51.462;7.338;2022-11-23T23:50:32;8.70;99.90
